Time;durP1;ratioP1;P1;durP2;ratioP2;P2;SDS_P1;SDS_P2;PMS_P1;PMS_P2;Temp;Humidity;BMP_temperature;BMP_pressure;BME280_temperature;BME280_humidity;BME280_pressure;Samples;Min_cycle;Max_cycle;Signal;HPM_P1;HPM_P2
2021/11/24 00:02:14;;;;;;;1.17;0.30;;;17.70;66.20;;;;;;10583289;28;20153;-54
2021/11/24 00:07:15;;;;;;;2.92;0.65;;;17.70;66.20;;;;;;10583079;28;20035;-53
2021/11/24 00:12:15;;;;;;;0.70;0.30;;;17.70;66.10;;;;;;10547709;28;20027;-52
2021/11/24 00:17:16;;;;;;;0.20;0.20;;;17.80;65.70;;;;;;10564259;28;20042;-54
2021/11/24 00:22:17;;;;;;;0.90;0.30;;;17.80;65.70;;;;;;10581344;28;20065;-54
2021/11/24 00:27:18;;;;;;;0.82;0.30;;;17.80;66.40;;;;;;10582185;28;20039;-53
2021/11/24 00:32:20;;;;;;;0.55;0.35;;;17.70;66.50;;;;;;10563902;28;20463;-54
2021/11/24 00:37:20;;;;;;;0.65;0.30;;;17.80;65.80;;;;;;10581807;28;20095;-54
2021/11/24 00:42:21;;;;;;;1.17;0.30;;;17.80;65.80;;;;;;10581624;28;20024;-53
2021/11/24 00:47:22;;;;;;;0.68;0.28;;;17.80;66.00;;;;;;10563171;28;20027;-54
2021/11/24 00:52:23;;;;;;;1.02;0.32;;;17.80;65.80;;;;;;10581091;28;20387;-55
2021/11/24 00:57:24;;;;;;;0.80;0.30;;;17.80;65.80;;;;;;10562774;28;20048;-54
2021/11/24 01:02:25;;;;;;;0.20;0.10;;;17.70;65.90;;;;;;10562864;28;20034;-52
2021/11/24 01:07:26;;;;;;;1.50;0.30;;;17.80;65.80;;;;;;10580586;28;20080;-54
2021/11/24 01:12:27;;;;;;;1.88;0.40;;;17.70;65.90;;;;;;10580543;28;20098;-53
2021/11/24 01:17:28;;;;;;;0.30;0.17;;;17.80;65.80;;;;;;10580406;28;20036;-55
2021/11/24 01:22:29;;;;;;;0.20;0.20;;;17.80;66.20;;;;;;10580127;28;20027;-54
2021/11/24 01:27:31;;;;;;;0.65;0.30;;;17.80;65.60;;;;;;10561847;28;20028;-53
2021/11/24 01:32:32;;;;;;;0.75;0.20;;;17.80;65.60;;;;;;10561945;28;20024;-54
2021/11/24 01:37:33;;;;;;;1.52;0.30;;;17.80;65.60;;;;;;10579427;28;20036;-54
2021/11/24 01:42:34;;;;;;;0.28;0.28;;;17.70;65.80;;;;;;10579702;28;20027;-53
2021/11/24 01:47:34;;;;;;;0.47;0.30;;;17.80;65.70;;;;;;10579755;28;20038;-54
2021/11/24 01:52:35;;;;;;;0.65;0.30;;;17.80;65.60;;;;;;10579679;28;20034;-54
2021/11/24 01:57:39;;;;;;;0.30;0.20;;;17.90;65.40;;;;;;10579462;28;20051;-54
2021/11/24 02:02:40;;;;;;;1.45;0.38;;;17.90;65.30;;;;;;10579598;28;20475;-54
2021/11/24 02:07:41;;;;;;;0.20;0.20;;;17.80;65.30;;;;;;10579393;28;20074;-54
2021/11/24 02:12:42;;;;;;;0.20;0.10;;;17.80;65.30;;;;;;10579135;28;20035;-54
2021/11/24 02:17:44;;;;;;;0.38;0.20;;;17.90;65.30;;;;;;10547433;28;20489;-54
2021/11/24 02:22:45;;;;;;;0.32;0.30;;;17.80;65.30;;;;;;10561154;28;20039;-55
2021/11/24 02:27:46;;;;;;;0.43;0.40;;;17.80;65.30;;;;;;10543893;28;20027;-54
2021/11/24 02:32:46;;;;;;;0.90;0.40;;;17.80;65.30;;;;;;10560720;28;20601;-54
2021/11/24 02:37:47;;;;;;;0.20;0.10;;;17.80;65.40;;;;;;10578469;28;20064;-52
2021/11/24 02:42:48;;;;;;;0.73;0.30;;;17.80;65.30;;;;;;10578803;28;20032;-53
2021/11/24 02:47:49;;;;;;;0.45;0.20;;;17.80;65.30;;;;;;10583126;28;20024;-55
2021/11/24 02:52:50;;;;;;;0.85;0.30;;;17.80;65.40;;;;;;10586289;28;20023;-55
2021/11/24 02:57:53;;;;;;;0.43;0.30;;;17.80;65.30;;;;;;10567848;28;20088;-53
2021/11/24 03:02:54;;;;;;;0.38;0.20;;;17.80;65.30;;;;;;10585746;28;20020;-54
2021/11/24 03:07:55;;;;;;;0.38;0.22;;;17.80;65.40;;;;;;10567396;28;20034;-54
2021/11/24 03:12:57;;;;;;;0.77;0.30;;;17.80;65.30;;;;;;10585335;28;20443;-54
2021/11/24 03:17:57;;;;;;;0.60;0.30;;;17.80;65.90;;;;;;10553321;28;20031;-54
2021/11/24 03:22:59;;;;;;;0.40;0.30;;;17.80;65.40;;;;;;10566823;28;20479;-54
2021/11/24 03:28:00;;;;;;;0.10;0.10;;;17.80;65.30;;;;;;10566874;28;20038;-55
2021/11/24 03:33:03;;;;;;;0.32;0.20;;;17.80;65.30;;;;;;10584715;28;20043;-55
2021/11/24 03:38:04;;;;;;;0.52;0.22;;;17.90;65.10;;;;;;10584166;28;20055;-54
2021/11/24 03:43:05;;;;;;;0.82;0.45;;;17.90;64.90;;;;;;10584084;28;20027;-54
2021/11/24 03:48:07;;;;;;;0.43;0.20;;;17.90;65.00;;;;;;10566067;28;20020;-54
2021/11/24 03:53:09;;;;;;;0.50;0.30;;;17.80;65.10;;;;;;10565764;28;20183;-54
2021/11/24 03:58:09;;;;;;;0.40;0.20;;;17.80;65.20;;;;;;10565201;28;20114;-54
2021/11/24 04:03:10;;;;;;;1.38;0.30;;;17.90;65.00;;;;;;10583405;28;20431;-55
2021/11/24 04:08:11;;;;;;;0.35;0.30;;;17.90;65.10;;;;;;10565066;28;20096;-53
2021/11/24 04:13:12;;;;;;;0.25;0.20;;;17.90;65.00;;;;;;10547679;28;20122;-55
2021/11/24 04:18:12;;;;;;;0.10;0.10;;;17.90;64.90;;;;;;10550780;28;20038;-55
2021/11/24 04:23:13;;;;;;;0.68;0.20;;;17.80;65.00;;;;;;10582663;28;20042;-55
2021/11/24 04:28:14;;;;;;;0.28;0.20;;;17.90;65.10;;;;;;10582411;28;20439;-55
2021/11/24 04:33:16;;;;;;;3.60;0.52;;;17.90;64.90;;;;;;10582133;28;20355;-54
2021/11/24 04:38:17;;;;;;;0.30;0.28;;;17.90;65.00;;;;;;10563733;28;20579;-55
2021/11/24 04:43:19;;;;;;;0.55;0.28;;;17.90;65.00;;;;;;10581827;28;20103;-55
2021/11/24 04:48:20;;;;;;;0.85;0.20;;;17.90;64.80;;;;;;10563629;28;20118;-54
2021/11/24 04:53:21;;;;;;;0.75;0.35;;;17.90;64.90;;;;;;10563279;28;20468;-55
2021/11/24 04:58:22;;;;;;;0.30;0.20;;;17.90;64.90;;;;;;10581086;28;20035;-55
2021/11/24 05:03:23;;;;;;;0.85;0.35;;;17.90;64.70;;;;;;10562930;28;20363;-54
2021/11/24 05:08:24;;;;;;;0.30;0.20;;;17.90;64.90;;;;;;10580257;28;20049;-55
2021/11/24 05:13:24;;;;;;;0.30;0.10;;;17.90;64.90;;;;;;10562492;28;20527;-55
2021/11/24 05:18:31;;;;;;;0.30;0.20;;;17.90;64.70;;;;;;10566992;28;20036;-52
2021/11/24 05:23:36;;;;;;;0.60;0.30;;;17.90;64.80;;;;;;10563290;28;20024;-55
2021/11/24 05:28:38;;;;;;;0.88;0.47;;;17.90;64.80;;;;;;10580396;28;20474;-55
2021/11/24 05:33:39;;;;;;;0.43;0.25;;;17.90;64.90;;;;;;10561838;28;20127;-55
2021/11/24 05:38:40;;;;;;;0.40;0.20;;;17.90;64.80;;;;;;10580003;28;20024;-54
2021/11/24 05:43:41;;;;;;;0.32;0.25;;;17.90;65.30;;;;;;10579958;28;20081;-54
2021/11/24 05:48:45;;;;;;;0.32;0.20;;;18.00;64.40;;;;;;10579777;28;20650;-55
2021/11/24 05:53:46;;;;;;;0.43;0.20;;;18.20;64.00;;;;;;10561847;28;20034;-55
2021/11/24 05:58:46;;;;;;;0.55;0.28;;;18.30;63.70;;;;;;10561219;28;20506;-56
2021/11/24 06:03:47;;;;;;;1.67;0.30;;;18.40;63.60;;;;;;10569209;28;20111;-55
2021/11/24 06:08:48;;;;;;;2.85;0.50;;;18.40;63.80;;;;;;10573122;28;20103;-56
2021/11/24 06:13:49;;;;;;;1.05;0.50;;;18.50;64.30;;;;;;10576269;28;20136;-57
2021/11/24 06:18:49;;;;;;;1.27;0.20;;;18.60;63.90;;;;;;10547389;28;20602;-56
2021/11/24 06:23:50;;;;;;;0.85;0.30;;;18.60;64.00;;;;;;10585587;28;20035;-54
2021/11/24 06:28:51;;;;;;;2.33;0.40;;;18.60;63.70;;;;;;10569056;28;20114;-52
2021/11/24 06:33:52;;;;;;;1.75;0.40;;;18.70;63.90;;;;;;10568375;28;20589;-52
2021/11/24 06:38:53;;;;;;;1.35;0.40;;;18.80;64.00;;;;;;10568529;28;20031;-56
2021/11/24 06:43:54;;;;;;;1.55;0.50;;;18.80;64.50;;;;;;10586731;28;20034;-56
2021/11/24 06:48:55;;;;;;;2.40;0.68;;;18.90;64.20;;;;;;10586370;28;20039;-56
2021/11/24 06:53:55;;;;;;;4.75;0.60;;;18.90;64.10;;;;;;10567833;28;20115;-54
2021/11/24 06:58:56;;;;;;;3.80;0.45;;;18.90;64.20;;;;;;10585882;28;20038;-53
2021/11/24 07:03:57;;;;;;;4.95;0.85;;;19.00;64.00;;;;;;10567408;28;20020;-55
2021/11/24 07:08:57;;;;;;;6.28;1.50;;;19.10;63.70;;;;;;10567019;28;20115;-55
2021/11/24 07:13:59;;;;;;;4.78;0.90;;;19.00;63.60;;;;;;10561548;28;20027;-57
2021/11/24 07:19:00;;;;;;;6.28;1.15;;;18.80;63.70;;;;;;10577389;28;20077;-55
2021/11/24 07:24:01;;;;;;;3.70;0.82;;;18.70;64.10;;;;;;10561002;28;20039;-54
2021/11/24 07:29:02;;;;;;;2.03;0.70;;;18.70;63.80;;;;;;10543885;28;20028;-55
2021/11/24 07:34:03;;;;;;;5.82;1.00;;;18.90;63.50;;;;;;10545340;28;20055;-54
2021/11/24 07:39:04;;;;;;;6.13;1.20;;;18.80;63.50;;;;;;10562381;28;20115;-58
2021/11/24 07:44:05;;;;;;;2.17;1.00;;;18.80;63.40;;;;;;10564490;28;20434;-55
2021/11/24 07:49:06;;;;;;;3.65;0.77;;;18.80;64.10;;;;;;10583266;28;20479;-56
2021/11/24 07:54:07;;;;;;;5.50;0.70;;;18.70;64.90;;;;;;10582462;28;20096;-56
2021/11/24 07:59:07;;;;;;;3.17;0.75;;;18.80;64.00;;;;;;10579541;28;20039;-56
2021/11/24 08:04:09;;;;;;;9.25;1.55;;;18.80;63.80;;;;;;10581783;28;20375;-55
2021/11/24 08:09:10;;;;;;;3.75;1.40;;;18.80;63.50;;;;;;10541383;28;20047;-55
2021/11/24 08:14:11;;;;;;;3.72;1.00;;;18.70;63.60;;;;;;10544588;28;20028;-55
2021/11/24 08:19:11;;;;;;;6.85;1.40;;;18.80;63.60;;;;;;10563205;28;20036;-55
2021/11/24 08:24:13;;;;;;;10.63;1.27;;;18.80;63.60;;;;;;10563901;28;20039;-55
2021/11/24 08:29:13;;;;;;;4.57;0.95;;;18.70;64.70;;;;;;10580290;28;20036;-54
2021/11/24 08:34:14;;;;;;;9.50;1.38;;;18.80;63.80;;;;;;10580511;28;20840;-53
2021/11/24 08:39:15;;;;;;;5.45;1.83;;;18.70;63.90;;;;;;10562386;28;20038;-56
2021/11/24 08:44:17;;;;;;;2.67;1.15;;;18.70;63.50;;;;;;10561595;28;20044;-55
2021/11/24 08:49:18;;;;;;;7.65;1.33;;;18.60;63.70;;;;;;10580627;28;20028;-55
2021/11/24 08:54:19;;;;;;;4.57;1.00;;;18.60;63.60;;;;;;10560037;28;20036;-55
2021/11/24 08:59:20;;;;;;;7.00;1.67;;;18.70;63.50;;;;;;10555793;28;20397;-56
2021/11/24 09:04:21;;;;;;;5.05;1.15;;;18.80;63.90;;;;;;10577126;28;20024;-52
2021/11/24 09:09:21;;;;;;;4.72;1.33;;;18.70;63.40;;;;;;10561177;28;20038;-55
2021/11/24 09:14:24;;;;;;;2.00;0.95;;;18.60;63.50;;;;;;10580050;28;20032;-56
2021/11/24 09:19:24;;;;;;;3.50;1.20;;;18.70;63.30;;;;;;10543348;28;20043;-55
2021/11/24 09:24:26;;;;;;;4.07;1.40;;;18.80;63.00;;;;;;10579929;28;20400;-55
2021/11/24 09:29:27;;;;;;;3.45;1.23;;;18.80;63.10;;;;;;10561687;28;20031;-54
2021/11/24 09:34:28;;;;;;;2.30;1.00;;;18.60;63.40;;;;;;10561350;28;20505;-56
2021/11/24 09:39:29;;;;;;;4.55;1.75;;;18.60;63.40;;;;;;10570634;28;20031;-56
2021/11/24 09:44:31;;;;;;;3.80;0.95;;;18.70;63.20;;;;;;10561011;28;20065;-55
2021/11/24 09:49:33;;;;;;;2.25;0.93;;;18.70;63.00;;;;;;10579418;28;20034;-56
2021/11/24 09:54:34;;;;;;;2.30;1.20;;;18.70;63.10;;;;;;10580506;28;20024;-56
2021/11/24 09:59:35;;;;;;;1.88;0.70;;;18.70;63.10;;;;;;10552254;28;20024;-56
2021/11/24 10:04:36;;;;;;;4.38;1.45;;;18.60;63.30;;;;;;10552556;28;20079;-56
2021/11/24 10:09:37;;;;;;;2.90;1.25;;;18.70;63.10;;;;;;10587669;28;20046;-55
2021/11/24 10:14:41;;;;;;;2.50;1.13;;;18.70;62.90;;;;;;10565035;28;20026;-56
2021/11/24 10:20:10;;;;;;;17.90;1.60;;;18.60;63.20;;;;;;10579053;28;20118;-56
2021/11/24 10:25:16;;;;;;;3.13;1.17;;;18.60;63.40;;;;;;10576930;28;20039;-56
2021/11/24 10:30:28;;;;;;;2.92;0.95;;;18.70;63.10;;;;;;10557199;28;20040;-55
2021/11/24 10:35:30;;;;;;;1.90;0.98;;;18.60;63.50;;;;;;10567469;28;20043;-56
2021/11/24 10:40:45;;;;;;;3.05;1.02;;;18.60;64.60;;;;;;10564732;28;20030;-54
2021/11/24 10:45:57;;;;;;;3.40;1.45;;;18.60;64.00;;;;;;10572636;28;20012;-55
2021/11/24 10:51:01;;;;;;;7.32;1.58;;;18.60;64.00;;;;;;10567055;28;20043;-55
2021/11/24 10:56:06;;;;;;;3.53;1.15;;;18.50;63.80;;;;;;10585804;28;20019;-55
2021/11/24 11:01:24;;;;;;;2.55;0.95;;;18.50;63.80;;;;;;10566946;28;20047;-55
2021/11/24 11:06:29;;;;;;;3.70;1.33;;;18.50;63.90;;;;;;10566668;28;20019;-56
2021/11/24 11:11:36;;;;;;;3.30;1.23;;;18.50;63.60;;;;;;10567058;28;20027;-54
2021/11/24 11:16:50;;;;;;;3.47;1.00;;;18.50;63.60;;;;;;10584387;28;20032;-56
2021/11/24 11:21:51;;;;;;;2.97;1.10;;;18.40;63.70;;;;;;10566270;28;20391;-56
2021/11/24 11:26:52;;;;;;;5.75;1.38;;;18.50;63.50;;;;;;10566314;28;20031;-57
2021/11/24 11:31:54;;;;;;;2.63;1.10;;;18.50;63.40;;;;;;10566383;28;20375;-57
2021/11/24 11:36:55;;;;;;;2.80;0.90;;;18.50;63.70;;;;;;10565769;28;20051;-57
2021/11/24 11:41:56;;;;;;;3.65;1.10;;;18.60;64.00;;;;;;10565054;28;20375;-57
2021/11/24 11:46:57;;;;;;;4.70;1.10;;;18.60;64.30;;;;;;10563697;28;20039;-56
2021/11/24 11:52:08;;;;;;;2.53;1.08;;;18.50;64.40;;;;;;10565212;28;20023;-58
2021/11/24 11:57:18;;;;;;;3.20;1.20;;;18.50;64.50;;;;;;10564904;28;20092;-57
2021/11/24 12:02:25;;;;;;;5.40;1.40;;;18.50;64.90;;;;;;10582947;28;20031;-57
2021/11/24 12:07:25;;;;;;;2.60;1.08;;;18.50;65.30;;;;;;10564602;28;20023;-57
2021/11/24 12:12:35;;;;;;;4.03;1.95;;;18.40;65.40;;;;;;10564465;28;20031;-56
2021/11/24 12:17:42;;;;;;;4.45;0.93;;;18.30;66.20;;;;;;10563663;28;20028;-56
2021/11/24 12:22:56;;;;;;;3.42;0.90;;;18.30;66.40;;;;;;10563793;28;20026;-57
2021/11/24 12:27:57;;;;;;;4.00;1.25;;;18.30;66.40;;;;;;10579365;28;20043;-57
2021/11/24 12:32:59;;;;;;;4.75;0.90;;;18.40;65.50;;;;;;10581207;28;20471;-55
2021/11/24 12:38:00;;;;;;;4.75;1.00;;;18.40;65.80;;;;;;10562443;28;20054;-54
2021/11/24 12:43:07;;;;;;;7.68;1.40;;;18.40;65.50;;;;;;10554465;28;20106;-54
2021/11/24 12:48:08;;;;;;;7.30;2.08;;;18.60;65.20;;;;;;10578398;28;20106;-56
2021/11/24 12:53:09;;;;;;;7.53;1.30;;;18.50;64.80;;;;;;10562280;28;20031;-55
2021/11/24 12:58:26;;;;;;;14.07;1.70;;;18.60;64.70;;;;;;10574899;28;20028;-52
2021/11/24 13:03:28;;;;;;;3.28;1.40;;;18.60;64.50;;;;;;10559953;28;20062;-54
2021/11/24 13:08:29;;;;;;;10.13;2.28;;;18.50;64.50;;;;;;10579857;28;20028;-54
2021/11/24 13:13:30;;;;;;;3.08;0.90;;;18.60;64.50;;;;;;10580048;28;20027;-53
2021/11/24 13:18:31;;;;;;;4.85;1.48;;;18.60;64.40;;;;;;10580352;28;20032;-54
2021/11/24 13:23:31;;;;;;;6.15;1.15;;;18.50;64.30;;;;;;10580059;28;20036;-54
2021/11/24 13:28:32;;;;;;;4.40;1.30;;;18.50;64.30;;;;;;10579845;28;20475;-53
2021/11/24 13:33:37;;;;;;;7.10;1.90;;;18.50;64.10;;;;;;10561370;28;20110;-54
2021/11/24 13:38:54;;;;;;;3.47;1.50;;;18.50;64.20;;;;;;10559988;28;20032;-54
2021/11/24 13:43:58;;;;;;;8.85;1.85;;;18.50;64.40;;;;;;10578346;28;20024;-54
2021/11/24 13:49:21;;;;;;;8.77;2.00;;;18.40;64.60;;;;;;10576806;28;20032;-53
2021/11/24 13:54:22;;;;;;;6.80;1.27;;;18.50;64.30;;;;;;10577657;28;20023;-54
2021/11/24 13:59:29;;;;;;;6.25;1.70;;;18.50;64.40;;;;;;10559493;28;20069;-53
2021/11/24 14:04:49;;;;;;;7.28;1.60;;;18.60;64.10;;;;;;10560813;28;20023;-52
2021/11/24 14:09:58;;;;;;;8.48;1.52;;;18.70;64.20;;;;;;10577808;28;20550;-54
2021/11/24 14:15:07;;;;;;;;;;;18.70;64.20;;;;;;10561156;28;20031;-54
2021/11/24 14:20:20;;;;;;;6.20;1.50;;;18.60;64.30;;;;;;10578757;28;19912;-54
2021/11/24 14:25:26;;;;;;;3.05;1.13;;;18.60;64.30;;;;;;10563899;28;20051;-53
2021/11/24 14:30:30;;;;;;;4.60;1.48;;;18.50;64.30;;;;;;10578615;28;20020;-54
2021/11/24 14:35:32;;;;;;;4.32;1.33;;;18.60;64.20;;;;;;10554838;28;20450;-55
2021/11/24 14:40:34;;;;;;;6.18;1.40;;;18.50;64.10;;;;;;10552783;28;20533;-53
2021/11/24 14:45:36;;;;;;;4.35;1.17;;;18.60;64.10;;;;;;10585596;28;20410;-55
2021/11/24 14:50:38;;;;;;;2.53;1.17;;;18.50;64.10;;;;;;10585935;28;20479;-55
2021/11/24 14:55:39;;;;;;;6.28;1.42;;;18.60;64.30;;;;;;10567225;28;20038;-53
2021/11/24 15:00:40;;;;;;;4.55;1.70;;;18.60;64.00;;;;;;10560932;28;20722;-52
2021/11/24 15:05:40;;;;;;;9.10;2.20;;;18.60;64.30;;;;;;10566639;28;20106;-55
2021/11/24 15:10:41;;;;;;;12.80;2.05;;;18.60;64.70;;;;;;10584656;28;20030;-52
2021/11/24 15:15:42;;;;;;;9.18;2.10;;;18.70;64.30;;;;;;10585246;28;20032;-50
2021/11/24 15:20:44;;;;;;;11.13;2.10;;;18.90;63.90;;;;;;10585221;28;20483;-54
2021/11/24 15:25:45;;;;;;;5.40;1.65;;;18.90;63.90;;;;;;10584337;28;20016;-55
2021/11/24 15:30:46;;;;;;;7.47;1.95;;;19.00;64.10;;;;;;10565394;28;20028;-54
2021/11/24 15:35:46;;;;;;;8.00;2.97;;;19.00;64.20;;;;;;10583843;28;20040;-54
2021/11/24 15:40:47;;;;;;;10.75;3.20;;;18.90;64.80;;;;;;10582451;28;20649;-55
2021/11/24 15:45:48;;;;;;;18.27;3.70;;;18.90;65.10;;;;;;10583336;28;20114;-53
2021/11/24 15:50:49;;;;;;;6.70;2.60;;;18.90;65.50;;;;;;10564060;28;20704;-53
2021/11/24 15:55:51;;;;;;;11.60;3.28;;;18.90;65.80;;;;;;10580328;28;20042;-54
2021/11/24 16:00:52;;;;;;;13.43;2.63;;;18.90;66.00;;;;;;10580715;28;20031;-54
2021/11/24 16:05:53;;;;;;;11.48;3.67;;;18.90;67.00;;;;;;10580646;28;20096;-53
2021/11/24 16:10:54;;;;;;;11.82;3.10;;;18.90;66.40;;;;;;10562491;28;20038;-53
2021/11/24 16:15:54;;;;;;;12.20;3.65;;;18.80;67.30;;;;;;10575657;28;20035;-54
2021/11/24 16:20:55;;;;;;;11.30;4.00;;;18.70;68.30;;;;;;10556347;28;20538;-53
2021/11/24 16:25:56;;;;;;;48.53;12.98;;;18.70;68.50;;;;;;10562424;28;20407;-54
2021/11/24 16:30:57;;;;;;;17.88;7.20;;;18.70;68.70;;;;;;10560435;28;20156;-54
2021/11/24 16:35:58;;;;;;;14.20;8.88;;;18.80;70.90;;;;;;10558707;28;20513;-55
2021/11/24 16:40:59;;;;;;;17.20;6.40;;;18.90;70.00;;;;;;10551001;28;20049;-55
2021/11/24 16:46:00;;;;;;;19.98;8.68;;;18.60;68.90;;;;;;10549241;28;20084;-54
2021/11/24 16:51:02;;;;;;;19.17;8.13;;;18.70;68.20;;;;;;10567690;28;20031;-55
2021/11/24 16:56:05;;;;;;;14.32;6.30;;;18.90;68.30;;;;;;10562841;28;20031;-56
2021/11/24 17:01:06;;;;;;;15.77;6.72;;;19.00;67.90;;;;;;10530733;28;20420;-54
2021/11/24 17:06:07;;;;;;;12.50;5.40;;;19.00;67.40;;;;;;10558050;28;20051;-51
2021/11/24 17:11:08;;;;;;;11.23;5.78;;;19.00;68.00;;;;;;10543296;28;20032;-55
2021/11/24 17:16:09;;;;;;;10.52;5.50;;;18.90;68.20;;;;;;10544685;28;20115;-51
2021/11/24 17:21:10;;;;;;;13.98;5.78;;;18.80;68.20;;;;;;10559462;28;20095;-53
2021/11/24 17:26:11;;;;;;;9.68;5.00;;;18.70;68.80;;;;;;10568820;28;20072;-54
2021/11/24 17:31:12;;;;;;;17.60;5.20;;;18.70;68.70;;;;;;10560938;28;20151;-53
2021/11/24 17:36:13;;;;;;;12.82;5.10;;;18.50;68.60;;;;;;10561640;28;20365;-52
2021/11/24 17:41:14;;;;;;;12.25;4.10;;;18.50;68.80;;;;;;10579931;28;20539;-51
2021/11/24 17:46:15;;;;;;;18.40;5.32;;;18.40;69.00;;;;;;10545316;28;20047;-52
2021/11/24 17:51:19;;;;;;;17.42;5.68;;;18.40;69.00;;;;;;10569374;28;20544;-53
2021/11/24 17:56:19;;;;;;;15.95;5.10;;;18.30;69.20;;;;;;10561185;28;20031;-54
2021/11/24 18:01:20;;;;;;;13.73;5.22;;;18.20;69.20;;;;;;10576975;28;20464;-52
2021/11/24 18:06:25;;;;;;;14.10;4.88;;;18.20;69.10;;;;;;10578583;28;20020;-51
2021/11/24 18:11:26;;;;;;;12.23;4.68;;;18.10;69.20;;;;;;10561718;28;20102;-53
2021/11/24 18:16:27;;;;;;;13.02;5.05;;;18.20;69.10;;;;;;10582180;28;20497;-54
2021/11/24 18:21:28;;;;;;;13.10;4.88;;;18.20;68.90;;;;;;10587481;28;20032;-54
2021/11/24 18:26:29;;;;;;;11.98;4.00;;;18.10;68.60;;;;;;10578598;28;20464;-54
2021/11/24 18:31:31;;;;;;;9.15;3.92;;;18.20;68.40;;;;;;10587270;28;20127;-55
2021/11/24 18:36:33;;;;;;;15.45;4.65;;;18.30;68.30;;;;;;10570120;28;20066;-53
2021/11/24 18:41:33;;;;;;;12.60;3.90;;;18.40;67.90;;;;;;10567713;28;20072;-51
2021/11/24 18:46:36;;;;;;;11.05;3.78;;;18.40;67.60;;;;;;10556739;28;20046;-55
2021/11/24 18:51:37;;;;;;;9.18;3.65;;;18.40;67.70;;;;;;10561175;28;20032;-55
2021/11/24 18:56:38;;;;;;;10.90;4.82;;;18.40;67.80;;;;;;10578238;28;20095;-55
2021/11/24 19:01:38;;;;;;;14.13;4.28;;;18.40;67.60;;;;;;10549599;28;20019;-55
2021/11/24 19:06:41;;;;;;;8.40;3.20;;;18.40;67.70;;;;;;10557943;28;20039;-54
2021/11/24 19:11:42;;;;;;;9.48;3.50;;;18.40;67.80;;;;;;10567454;28;20467;-54
2021/11/24 19:16:43;;;;;;;7.90;3.25;;;18.30;68.10;;;;;;10579053;28;20034;-53
2021/11/24 19:21:44;;;;;;;8.05;4.10;;;18.30;68.30;;;;;;10584391;28;20536;-54
2021/11/24 19:26:44;;;;;;;7.53;3.58;;;18.40;67.80;;;;;;10582680;28;20110;-54
2021/11/24 19:31:45;;;;;;;9.77;3.10;;;18.50;67.70;;;;;;10582634;28;20453;-57
2021/11/24 19:36:46;;;;;;;8.35;3.33;;;18.40;67.50;;;;;;10581184;28;20051;-56
2021/11/24 19:41:46;;;;;;;6.28;3.70;;;18.40;67.70;;;;;;10563230;28;20073;-57
2021/11/24 19:46:47;;;;;;;8.93;2.92;;;18.40;67.60;;;;;;10581869;28;20031;-57
2021/11/24 19:51:48;;;;;;;9.70;4.22;;;18.50;67.50;;;;;;10581607;28;20042;-58
2021/11/24 19:56:48;;;;;;;7.85;3.10;;;18.60;67.40;;;;;;10565487;28;20036;-57
2021/11/24 20:01:49;;;;;;;7.60;3.05;;;18.50;67.40;;;;;;10565625;28;20028;-57
2021/11/24 20:06:50;;;;;;;8.43;3.03;;;18.50;67.40;;;;;;10565311;28;20412;-57
2021/11/24 20:11:51;;;;;;;6.82;2.90;;;18.50;67.30;;;;;;10583231;28;20053;-57
2021/11/24 20:16:51;;;;;;;7.78;2.88;;;18.40;67.40;;;;;;10582913;28;20024;-58
2021/11/24 20:21:55;;;;;;;7.03;3.13;;;18.40;67.70;;;;;;10564427;28;20050;-57
2021/11/24 20:26:55;;;;;;;5.78;2.70;;;18.30;67.80;;;;;;10582507;28;20095;-57
2021/11/24 20:31:56;;;;;;;7.30;3.35;;;18.20;68.00;;;;;;10582609;28;20038;-57
2021/11/24 20:36:57;;;;;;;7.82;2.88;;;18.10;68.20;;;;;;10581974;28;20071;-57
2021/11/24 20:41:58;;;;;;;7.90;3.13;;;18.00;68.30;;;;;;10580783;28;20405;-57
2021/11/24 20:46:58;;;;;;;6.55;2.90;;;18.00;68.50;;;;;;10563727;28;20123;-57
2021/11/24 20:51:59;;;;;;;5.20;2.75;;;17.90;68.60;;;;;;10581641;28;20030;-58
2021/11/24 20:57:00;;;;;;;7.55;3.03;;;17.80;68.70;;;;;;10563393;28;20024;-58
2021/11/24 21:02:02;;;;;;;6.30;3.35;;;17.80;68.80;;;;;;10563209;28;20079;-57
2021/11/24 21:07:03;;;;;;;5.15;3.20;;;17.70;68.90;;;;;;10581217;28;20019;-57
2021/11/24 21:12:04;;;;;;;7.13;3.38;;;17.70;69.00;;;;;;10562720;28;20449;-58
2021/11/24 21:17:05;;;;;;;6.90;3.20;;;17.70;69.10;;;;;;10567179;28;20043;-57
2021/11/24 21:22:06;;;;;;;6.55;3.05;;;17.60;69.10;;;;;;10562111;28;20463;-57
2021/11/24 21:27:08;;;;;;;5.07;3.03;;;17.50;69.20;;;;;;10562268;28;20140;-57
2021/11/24 21:32:09;;;;;;;3.60;2.30;;;17.50;69.20;;;;;;10562360;28;20043;-57
2021/11/24 21:37:10;;;;;;;5.40;2.53;;;17.40;69.30;;;;;;10579719;28;20040;-57
2021/11/24 21:42:11;;;;;;;5.82;2.42;;;17.40;69.40;;;;;;10561975;28;20391;-59
2021/11/24 21:47:12;;;;;;;4.82;3.03;;;17.50;69.30;;;;;;10580099;28;20032;-58
2021/11/24 21:52:12;;;;;;;5.05;2.85;;;17.50;69.20;;;;;;10579300;28;20563;-57
2021/11/24 21:57:13;;;;;;;5.15;3.00;;;17.50;68.90;;;;;;10579786;28;20487;-58
2021/11/24 22:02:15;;;;;;;9.18;3.33;;;17.50;68.70;;;;;;10579715;28;20027;-58
2021/11/24 22:07:20;;;;;;;4.32;2.80;;;17.50;68.60;;;;;;10579621;28;20390;-57
2021/11/24 22:12:21;;;;;;;3.55;2.28;;;17.60;68.40;;;;;;10579496;28;20027;-57
2021/11/24 22:17:22;;;;;;;4.45;2.35;;;17.70;68.20;;;;;;10561123;28;20032;-55
2021/11/24 22:22:23;;;;;;;4.40;2.45;;;17.70;68.00;;;;;;10560981;28;20081;-57
2021/11/24 22:27:24;;;;;;;3.83;2.47;;;17.70;67.90;;;;;;10579184;28;20122;-58
2021/11/24 22:32:24;;;;;;;4.28;2.40;;;17.80;67.80;;;;;;10577667;28;20116;-57
2021/11/24 22:37:25;;;;;;;4.55;2.60;;;17.80;67.50;;;;;;10578787;28;20531;-57
2021/11/24 22:42:26;;;;;;;3.92;2.50;;;17.90;67.50;;;;;;10578997;28;20019;-57
2021/11/24 22:47:27;;;;;;;3.80;2.50;;;17.80;67.50;;;;;;10578669;28;20032;-58
2021/11/24 22:52:27;;;;;;;5.03;2.55;;;17.80;67.50;;;;;;10578613;28;20052;-57
2021/11/24 22:57:28;;;;;;;8.85;2.70;;;17.90;67.30;;;;;;10578550;28;20119;-58
2021/11/24 23:02:29;;;;;;;4.30;2.53;;;17.90;67.30;;;;;;10579341;28;20023;-57
2021/11/24 23:07:30;;;;;;;8.38;2.47;;;17.80;67.50;;;;;;10585860;28;20549;-57
2021/11/24 23:12:31;;;;;;;3.78;2.22;;;17.80;67.70;;;;;;10568017;28;20035;-57
2021/11/24 23:17:31;;;;;;;4.47;2.63;;;17.80;67.60;;;;;;10567422;28;20083;-57
2021/11/24 23:22:34;;;;;;;4.10;2.40;;;17.90;67.20;;;;;;10585349;28;20080;-57
2021/11/24 23:27:35;;;;;;;5.13;2.45;;;17.90;67.10;;;;;;10585256;28;20032;-56
2021/11/24 23:32:36;;;;;;;4.80;2.80;;;17.90;67.10;;;;;;10566677;28;20036;-57
2021/11/24 23:37:37;;;;;;;3.42;2.45;;;17.80;67.20;;;;;;10566022;28;20067;-57
2021/11/24 23:42:38;;;;;;;4.80;2.72;;;17.80;67.30;;;;;;10549345;28;20062;-57
2021/11/24 23:47:39;;;;;;;3.70;2.33;;;17.80;67.20;;;;;;10566468;28;20534;-57
2021/11/24 23:52:40;;;;;;;3.95;2.67;;;17.80;67.10;;;;;;10584222;28;20028;-57
2021/11/24 23:57:41;;;;;;;3.83;2.55;;;17.90;66.80;;;;;;10565764;28;20062;-56
